createdAt,value
2019-06-20T00:00:20.043Z,60.705566
2019-06-20T00:01:29.558Z,60.60791
2019-06-20T00:02:39.073Z,60.308838
2019-06-20T00:03:48.572Z,60.308838
2019-06-20T00:04:58.077Z,60.406494
2019-06-20T00:06:07.590Z,59.906006
2019-06-20T00:07:17.353Z,59.277344
2019-06-20T00:08:26.622Z,59.277344
2019-06-20T00:09:36.149Z,58.874512
2019-06-20T00:10:45.673Z,58.575439
2019-06-20T00:11:56.171Z,58.679199
2019-06-20T00:13:05.690Z,58.776855
2019-06-20T00:14:15.203Z,58.679199
2019-06-20T00:15:24.721Z,58.679199
2019-06-20T00:16:34.223Z,58.776855
2019-06-20T00:17:44.752Z,58.978271
2019-06-20T00:18:54.254Z,59.075928
2019-06-20T00:20:03.778Z,59.075928
2019-06-20T00:21:13.282Z,59.179688
2019-06-20T00:22:22.813Z,59.179688
2019-06-20T00:23:32.324Z,59.204102
2019-06-20T00:24:41.832Z,59.106445
2019-06-20T00:25:51.393Z,59.405518
2019-06-20T00:27:00.851Z,59.503174
2019-06-20T00:28:10.391Z,59.80835
2019-06-20T00:29:19.882Z,60.107422
2019-06-20T00:30:29.383Z,60.107422
2019-06-20T00:31:38.895Z,60.333252
2019-06-20T00:32:48.438Z,60.333252
2019-06-20T00:33:57.953Z,60.534668
2019-06-20T00:35:07.475Z,60.333252
2019-06-20T00:36:16.987Z,60.333252
2019-06-20T00:37:26.511Z,60.03418
2019-06-20T00:38:36.025Z,60.137939
2019-06-20T00:39:45.532Z,59.960938
2019-06-20T00:40:55.046Z,60.064697
2019-06-20T00:42:04.556Z,59.661865
2019-06-20T00:43:17.731Z,59.863281
2019-06-20T00:44:23.544Z,59.960938
2019-06-20T00:45:33.054Z,59.863281
2019-06-20T00:46:42.589Z,59.765625
2019-06-20T00:47:52.125Z,59.564209
2019-06-20T00:49:01.634Z,59.362793
2019-06-20T00:50:11.153Z,59.460449
2019-06-20T00:51:20.669Z,59.460449
2019-06-20T00:52:30.190Z,59.460449
2019-06-20T00:53:39.699Z,59.490967
2019-06-20T00:54:49.209Z,59.490967
2019-06-20T00:55:58.722Z,59.191895
2019-06-20T00:57:08.228Z,59.490967
2019-06-20T00:58:17.756Z,59.289551
2019-06-20T00:59:27.311Z,59.393311
2019-06-20T01:00:36.814Z,59.191895
2019-06-20T01:01:46.324Z,59.393311
2019-06-20T01:02:55.844Z,59.490967
2019-06-20T01:04:05.361Z,59.393311
2019-06-20T01:05:14.862Z,59.490967
2019-06-20T01:06:24.386Z,59.588623
2019-06-20T01:07:33.902Z,59.790039
2019-06-20T01:08:43.424Z,59.692383
2019-06-20T01:09:52.932Z,59.918213
2019-06-20T01:11:02.492Z,60.021973
2019-06-20T01:12:11.962Z,60.223389
2019-06-20T01:13:32.874Z,60.223389
2019-06-20T01:14:31.994Z,60.321045
2019-06-20T01:15:41.503Z,60.119629
2019-06-20T01:16:51.015Z,60.223389
2019-06-20T01:18:00.533Z,60.223389
2019-06-20T01:19:10.049Z,60.223389
2019-06-20T01:20:19.556Z,60.223389
2019-06-20T01:21:29.101Z,59.820557
2019-06-20T01:22:38.597Z,59.820557
2019-06-20T01:23:48.108Z,59.521484
2019-06-20T01:24:57.610Z,59.619141
2019-06-20T01:26:07.125Z,59.014893
2019-06-20T01:27:16.631Z,59.014893
2019-06-20T01:28:26.154Z,58.813477
2019-06-20T01:29:35.672Z,58.184814
2019-06-20T01:30:45.191Z,58.184814
2019-06-20T01:31:54.700Z,58.184814
2019-06-20T01:33:04.224Z,58.184814
2019-06-20T01:34:13.741Z,58.184814
2019-06-20T01:35:23.237Z,58.087158
2019-06-20T01:36:32.745Z,58.087158
2019-06-20T01:37:42.267Z,58.184814
2019-06-20T01:38:51.774Z,58.288574
2019-06-20T01:40:01.287Z,58.38623
2019-06-20T01:41:10.796Z,58.38623
2019-06-20T01:42:20.299Z,58.48999
2019-06-20T01:43:29.813Z,58.587646
2019-06-20T01:44:40.318Z,58.587646
2019-06-20T01:45:49.830Z,58.71582
2019-06-20T01:46:59.339Z,58.813477
2019-06-20T01:48:08.865Z,58.917236
2019-06-20T01:49:18.374Z,58.917236
2019-06-20T01:50:27.886Z,58.917236
2019-06-20T01:51:37.398Z,59.014893
2019-06-20T01:52:46.994Z,59.014893
2019-06-20T01:53:56.471Z,59.014893
2019-06-20T01:55:05.979Z,59.014893
2019-06-20T01:56:15.485Z,59.118652
2019-06-20T01:57:25.000Z,60.119629
2019-06-20T01:58:34.535Z,60.424805
2019-06-20T01:59:44.071Z,60.723877
2019-06-20T02:00:53.560Z,61.328125
2019-06-20T02:02:03.069Z,61.053467
2019-06-20T02:03:12.595Z,61.456299
2019-06-20T02:04:22.090Z,61.657715
2019-06-20T02:05:31.599Z,61.859131
2019-06-20T02:06:41.110Z,61.859131
2019-06-20T02:07:50.638Z,61.956787
2019-06-20T02:09:00.173Z,61.553955
2019-06-20T02:10:09.677Z,61.151123
2019-06-20T02:11:19.178Z,60.552979
2019-06-20T02:12:28.700Z,60.955811
2019-06-20T02:13:38.230Z,60.552979
2019-06-20T02:14:47.738Z,60.650635
2019-06-20T02:15:57.249Z,65.673828
2019-06-20T02:17:06.766Z,65.771484
2019-06-20T02:18:16.301Z,65.50293
2019-06-20T02:19:25.808Z,69.152832
2019-06-20T02:20:35.319Z,68.682861
2019-06-20T02:21:44.827Z,70.428467
2019-06-20T02:22:54.339Z,73.175049
2019-06-20T02:24:03.882Z,74.987793
2019-06-20T02:25:13.374Z,74.21875
2019-06-20T02:26:22.885Z,76.538086
2019-06-20T02:27:32.394Z,78.045654
2019-06-20T02:28:41.914Z,77.075195
2019-06-20T02:29:51.434Z,78.186035
2019-06-20T02:31:00.950Z,79.632568
2019-06-20T02:32:10.450Z,78.222656
2019-06-20T02:33:19.969Z,76.403809
2019-06-20T02:34:29.501Z,78.723145
2019-06-20T02:35:39.005Z,79.931641
2019-06-20T02:36:48.518Z,78.662109
2019-06-20T02:37:58.019Z,79.364014
2019-06-20T02:39:07.547Z,80.377197
2019-06-20T02:40:17.053Z,78.259277
2019-06-20T02:41:26.577Z,78.863525
2019-06-20T02:42:36.074Z,79.467773
2019-06-20T02:43:45.597Z,80.81665
2019-06-20T02:44:55.110Z,81.420898
2019-06-20T02:46:04.615Z,81.524658
2019-06-20T02:47:14.133Z,81.82373
2019-06-20T02:48:23.660Z,80.92041
2019-06-20T02:49:33.165Z,81.82373
2019-06-20T02:50:42.670Z,81.323242
2019-06-20T02:51:52.180Z,80.957031
2019-06-20T02:53:01.736Z,82.635498
2019-06-20T02:54:11.224Z,83.581543
2019-06-20T02:55:20.732Z,82.269287
2019-06-20T02:56:30.237Z,81.359863
2019-06-20T02:57:39.741Z,82.067871
2019-06-20T02:58:49.269Z,82.93457
2019-06-20T02:59:58.775Z,81.82373
2019-06-20T03:01:08.283Z,82.93457
2019-06-20T03:02:17.783Z,83.441162
2019-06-20T03:03:27.383Z,84.954834
2019-06-20T03:04:36.836Z,83.441162
2019-06-20T03:05:46.352Z,78.900146
2019-06-20T03:06:55.850Z,79.608154
2019-06-20T03:08:05.360Z,81.384277
2019-06-20T03:09:14.876Z,79.56543
2019-06-20T03:10:24.387Z,79.669189
2019-06-20T03:11:33.899Z,80.377197
2019-06-20T03:12:43.422Z,79.56543
2019-06-20T03:13:52.949Z,81.280518
2019-06-20T03:15:02.462Z,81.787109
2019-06-20T03:16:11.964Z,82.794189
2019-06-20T03:17:21.459Z,83.398438
2019-06-20T03:18:31.012Z,82.092285
2019-06-20T03:19:40.516Z,81.280518
2019-06-20T03:20:50.020Z,81.988525
2019-06-20T03:21:59.547Z,80.67627
2019-06-20T03:23:09.042Z,81.182861
2019-06-20T03:24:18.597Z,80.877686
2019-06-20T03:25:28.075Z,80.474854
2019-06-20T03:26:37.605Z,80.175781
2019-06-20T03:27:47.136Z,79.364014
2019-06-20T03:28:56.653Z,79.974365
2019-06-20T03:30:06.172Z,80.377197
2019-06-20T03:31:15.671Z,79.56543
2019-06-20T03:32:25.178Z,77.111816
2019-06-20T03:33:34.693Z,78.02124
2019-06-20T03:34:44.223Z,78.02124
2019-06-20T03:35:53.754Z,78.02124
2019-06-20T03:37:03.272Z,77.819824
2019-06-20T03:38:12.778Z,77.819824
2019-06-20T03:39:22.309Z,77.008057
2019-06-20T03:40:31.833Z,77.819824
2019-06-20T03:41:41.358Z,78.320312
2019-06-20T03:42:50.851Z,79.125977
2019-06-20T03:44:00.363Z,80.0354
2019-06-20T03:45:09.871Z,80.438232
2019-06-20T03:46:19.383Z,80.841064
2019-06-20T03:47:28.886Z,81.445312
2019-06-20T03:48:38.384Z,81.750488
2019-06-20T03:49:47.917Z,81.750488
2019-06-20T03:50:57.442Z,82.958984
2019-06-20T03:52:06.964Z,84.570312
2019-06-20T03:53:16.478Z,85.681152
2019-06-20T03:54:25.990Z,85.314941
2019-06-20T03:55:35.502Z,86.730957
2019-06-20T03:56:45.020Z,87.133789
2019-06-20T03:57:54.525Z,87.231445
2019-06-20T03:59:05.045Z,87.536621
2019-06-20T04:00:14.548Z,87.738037
2019-06-20T04:01:24.070Z,87.738037
2019-06-20T04:02:33.587Z,87.780762
2019-06-20T04:03:43.096Z,87.37793
2019-06-20T04:04:52.622Z,86.767578
2019-06-20T04:06:02.134Z,86.767578
2019-06-20T04:07:11.642Z,87.615967
2019-06-20T04:08:21.140Z,86.608887
2019-06-20T04:09:30.668Z,86.968994
2019-06-20T04:10:40.174Z,86.871338
2019-06-20T04:11:49.750Z,85.357666
2019-06-20T04:12:59.198Z,87.579346
2019-06-20T04:14:08.731Z,85.455322
2019-06-20T04:15:19.509Z,85.455322
2019-06-20T04:16:27.720Z,86.767578
2019-06-20T04:17:37.222Z,87.878418
2019-06-20T04:18:46.730Z,88.28125
2019-06-20T04:19:56.267Z,87.27417
2019-06-20T04:21:05.774Z,86.566162
2019-06-20T04:22:15.299Z,86.669922
2019-06-20T04:23:24.833Z,86.566162
2019-06-20T04:24:34.344Z,85.760498
2019-06-20T04:25:43.846Z,86.767578
2019-06-20T04:26:53.363Z,86.26709
2019-06-20T04:28:02.872Z,85.516357
2019-06-20T04:29:12.396Z,84.008789
2019-06-20T04:30:21.920Z,85.717773
2019-06-20T04:31:31.420Z,84.008789
2019-06-20T04:32:40.934Z,84.411621
2019-06-20T04:33:50.443Z,83.80127
2019-06-20T04:34:59.973Z,85.015869
2019-06-20T04:36:09.475Z,86.425781
2019-06-20T04:37:18.990Z,82.391357
2019-06-20T04:38:28.500Z,84.27124
2019-06-20T04:39:38.025Z,84.875488
2019-06-20T04:40:47.529Z,84.368896
2019-06-20T04:41:57.043Z,84.368896
2019-06-20T04:43:06.558Z,85.577393
2019-06-20T04:44:16.079Z,85.577393
2019-06-20T04:45:34.464Z,84.771729
2019-06-20T04:46:36.062Z,84.472656
2019-06-20T04:47:45.574Z,85.174561
2019-06-20T04:48:55.082Z,85.778809
2019-06-20T04:50:04.622Z,85.076904
2019-06-20T04:51:14.117Z,84.832764
2019-06-20T04:52:23.626Z,85.339355
2019-06-20T04:53:33.138Z,84.735107
2019-06-20T04:54:42.657Z,84.936523
2019-06-20T04:55:52.201Z,85.03418
2019-06-20T04:57:01.683Z,84.533691
2019-06-20T04:58:11.194Z,84.533691
2019-06-20T04:59:20.743Z,84.936523
2019-06-20T05:00:30.256Z,84.936523
2019-06-20T05:01:39.789Z,85.540771
2019-06-20T05:02:49.307Z,86.14502
2019-06-20T05:03:58.821Z,86.444092
2019-06-20T05:05:08.355Z,86.645508
2019-06-20T05:06:17.878Z,85.235596
2019-06-20T05:07:27.378Z,85.437012
2019-06-20T05:08:36.894Z,85.235596
2019-06-20T05:09:46.416Z,84.832764
2019-06-20T05:10:55.924Z,84.735107
2019-06-20T05:12:05.431Z,85.235596
2019-06-20T05:13:14.997Z,85.839844
2019-06-20T05:14:24.472Z,85.198975
2019-06-20T05:15:33.984Z,85.095215
2019-06-20T05:16:44.478Z,85.339355
2019-06-20T05:17:53.994Z,85.540771
2019-06-20T05:19:03.517Z,85.638428
2019-06-20T05:20:13.059Z,85.601807
2019-06-20T05:21:22.603Z,85.638428
2019-06-20T05:22:32.034Z,85.900879
2019-06-20T05:23:41.545Z,86.004639
2019-06-20T05:24:51.099Z,85.900879
2019-06-20T05:26:00.594Z,85.699463
2019-06-20T05:27:10.106Z,85.400391
2019-06-20T05:28:19.619Z,85.198975
2019-06-20T05:29:29.147Z,85.198975
2019-06-20T05:30:38.668Z,84.954834
2019-06-20T05:31:48.180Z,85.05249
2019-06-20T05:32:57.687Z,85.357666
2019-06-20T05:34:07.195Z,84.649658
2019-06-20T05:35:16.726Z,84.448242
2019-06-20T05:36:26.222Z,83.947754
2019-06-20T05:37:35.733Z,84.14917
2019-06-20T05:38:45.245Z,83.648682
2019-06-20T05:39:54.795Z,83.14209
2019-06-20T05:41:04.300Z,83.14209
2019-06-20T05:42:13.816Z,83.044434
2019-06-20T05:43:23.317Z,82.739258
2019-06-20T05:44:32.838Z,82.904053
2019-06-20T05:45:45.121Z,82.702637
2019-06-20T05:46:52.858Z,82.598877
2019-06-20T05:48:03.347Z,82.501221
2019-06-20T05:49:12.860Z,82.702637
2019-06-20T05:50:22.378Z,82.159424
2019-06-20T05:51:31.888Z,81.854248
2019-06-20T05:52:42.392Z,81.555176
2019-06-20T05:53:51.902Z,81.756592
2019-06-20T05:55:01.451Z,81.35376
2019-06-20T05:56:10.939Z,81.35376
2019-06-20T05:57:20.449Z,81.152344
2019-06-20T05:58:29.966Z,80.950928
2019-06-20T05:59:39.476Z,81.518555
2019-06-20T06:00:49.019Z,80.609131
2019-06-20T06:01:58.517Z,80.413818
2019-06-20T06:03:08.003Z,80.212402
2019-06-20T06:04:18.494Z,79.370117
2019-06-20T06:05:28.015Z,79.766846
2019-06-20T06:06:37.527Z,80.169678
2019-06-20T06:07:47.039Z,79.931641
2019-06-20T06:08:56.546Z,80.133057
2019-06-20T06:10:06.057Z,79.327393
2019-06-20T06:11:16.604Z,78.625488
2019-06-20T06:12:25.106Z,77.886963
2019-06-20T06:13:34.608Z,78.186035
2019-06-20T06:14:44.119Z,77.124023
2019-06-20T06:15:53.644Z,76.116943
2019-06-20T06:17:03.588Z,77.020264
2019-06-20T06:18:12.659Z,76.818848
2019-06-20T06:19:22.166Z,77.484131
2019-06-20T06:20:31.697Z,77.282715
2019-06-20T06:21:41.210Z,77.282715
2019-06-20T06:22:50.719Z,76.446533
2019-06-20T06:24:00.224Z,76.043701
2019-06-20T06:25:09.756Z,76.043701
2019-06-20T06:26:19.265Z,76.446533
2019-06-20T06:27:28.786Z,76.281738
2019-06-20T06:28:38.301Z,75.177002
2019-06-20T06:29:47.778Z,75.78125
2019-06-20T06:30:57.324Z,76.379395
2019-06-20T06:32:06.833Z,75.177002
2019-06-20T06:33:16.338Z,74.475098
2019-06-20T06:34:25.857Z,74.273682
2019-06-20T06:35:35.380Z,73.571777
2019-06-20T06:36:44.887Z,72.467041
2019-06-20T06:37:54.398Z,73.974609
2019-06-20T06:39:03.928Z,73.974609
2019-06-20T06:40:13.454Z,74.371338
2019-06-20T06:41:22.959Z,73.638916
2019-06-20T06:42:32.471Z,73.840332
2019-06-20T06:43:42.337Z,74.639893
2019-06-20T06:44:51.511Z,74.200439
2019-06-20T06:46:01.035Z,74.304199
2019-06-20T06:47:10.542Z,73.602295
2019-06-20T06:48:20.048Z,73.468018
2019-06-20T06:49:29.566Z,73.266602
2019-06-20T06:50:39.082Z,73.565674
2019-06-20T06:51:48.597Z,73.162842
2019-06-20T06:52:58.099Z,73.730469
2019-06-20T06:54:07.612Z,73.431396
2019-06-20T06:55:17.224Z,70.928955
2019-06-20T06:56:26.655Z,71.594238
2019-06-20T06:57:36.168Z,70.892334
2019-06-20T06:58:45.675Z,71.295166
2019-06-20T06:59:55.184Z,71.191406
2019-06-20T07:01:04.709Z,70.690918
2019-06-20T07:02:15.208Z,71.191406
2019-06-20T07:03:24.713Z,68.688965
2019-06-20T07:04:34.232Z,68.890381
2019-06-20T07:05:43.812Z,69.360352
2019-06-20T07:06:53.319Z,68.756104
2019-06-20T07:08:02.840Z,67.224121
2019-06-20T07:09:12.346Z,66.821289
2019-06-20T07:10:21.872Z,64.794922
2019-06-20T07:11:31.380Z,64.825439
2019-06-20T07:12:40.915Z,65.490723
2019-06-20T07:13:50.434Z,64.489746
2019-06-20T07:14:59.975Z,64.489746
2019-06-20T07:16:09.505Z,63.763428
2019-06-20T07:17:19.060Z,64.562988
2019-06-20T07:18:28.564Z,63.494873
2019-06-20T07:19:38.179Z,63.293457
2019-06-20T07:20:47.696Z,62.29248
2019-06-20T07:21:57.220Z,63.165283
2019-06-20T07:23:06.767Z,62.530518
2019-06-20T07:24:16.285Z,62.402344
2019-06-20T07:25:25.807Z,62.072754
2019-06-20T07:26:35.319Z,61.572266
2019-06-20T07:27:44.895Z,60.778809
2019-06-20T07:28:54.459Z,61.047363
2019-06-20T07:30:03.974Z,61.248779
2019-06-20T07:31:13.527Z,60.418701
2019-06-20T07:32:23.187Z,60.717773
2019-06-20T07:33:32.703Z,58.398438
2019-06-20T07:34:42.222Z,59.393311
2019-06-20T07:35:51.786Z,59.692383
2019-06-20T07:37:01.329Z,58.624268
2019-06-20T07:38:10.912Z,59.020996
2019-06-20T07:39:20.405Z,59.619141
2019-06-20T07:40:29.943Z,58.526611
2019-06-20T07:41:39.460Z,58.251953
2019-06-20T07:42:48.968Z,58.154297
2019-06-20T07:43:58.486Z,58.007812
2019-06-20T07:45:08.004Z,58.178711
2019-06-20T07:46:17.535Z,58.483887
2019-06-20T07:47:27.058Z,58.123779
2019-06-20T07:48:36.562Z,56.005859
2019-06-20T07:49:46.191Z,55.255127
2019-06-20T07:50:55.597Z,55.157471
2019-06-20T07:52:05.104Z,54.656982
2019-06-20T07:53:14.613Z,55.926514
2019-06-20T07:54:24.159Z,54.901123
2019-06-20T07:55:33.681Z,53.582764
2019-06-20T07:56:43.201Z,52.990723
2019-06-20T07:57:52.735Z,52.69165
2019-06-20T07:59:02.251Z,52.667236
2019-06-20T08:00:11.766Z,52.740479
2019-06-20T08:01:21.329Z,53.436279
2019-06-20T08:02:30.865Z,52.636719
2019-06-20T08:03:40.379Z,51.519775
2019-06-20T08:04:49.888Z,51.226807
2019-06-20T08:05:59.416Z,51.696777
2019-06-20T08:07:08.925Z,52.191162
2019-06-20T08:08:18.438Z,51.867676
2019-06-20T08:09:43.819Z,51.470947
2019-06-20T08:10:38.460Z,51.177979
2019-06-20T08:11:47.977Z,51.177979
2019-06-20T08:12:57.491Z,50.579834
2019-06-20T08:14:07.003Z,50.952148
2019-06-20T08:15:16.505Z,51.867676
2019-06-20T08:16:26.023Z,51.275635
2019-06-20T08:17:35.881Z,51.177979
2019-06-20T08:18:45.090Z,50.579834
2019-06-20T08:19:54.580Z,50.335693
2019-06-20T08:21:04.113Z,49.639893
2019-06-20T08:22:13.628Z,50.20752
2019-06-20T08:23:23.132Z,49.688721
2019-06-20T08:24:32.636Z,49.493408
2019-06-20T08:25:42.173Z,50.085449
2019-06-20T08:26:51.682Z,49.145508
2019-06-20T08:28:02.488Z,48.034668
2019-06-20T08:29:20.550Z,48.33374
2019-06-20T08:30:22.163Z,47.467041
2019-06-20T08:31:31.711Z,46.972656
2019-06-20T08:32:41.229Z,47.167969
2019-06-20T08:33:50.758Z,46.948242
2019-06-20T08:35:02.483Z,47.247314
2019-06-20T08:36:11.750Z,47.424316
2019-06-20T08:37:21.260Z,46.905518
2019-06-20T08:38:30.765Z,45.819092
2019-06-20T08:39:40.270Z,45.843506
2019-06-20T08:40:49.811Z,46.356201
2019-06-20T08:42:00.472Z,46.850586
2019-06-20T08:43:08.791Z,46.575928
2019-06-20T08:44:18.305Z,47.094727
2019-06-20T08:45:27.814Z,47.686768
2019-06-20T08:46:37.339Z,48.10791
2019-06-20T08:47:46.847Z,48.327637
2019-06-20T08:48:57.906Z,48.822021
2019-06-20T08:50:06.830Z,49.243164
2019-06-20T08:51:16.347Z,49.047852
2019-06-20T08:52:25.854Z,49.56665
2019-06-20T08:53:35.366Z,50.085449
2019-06-20T08:54:44.887Z,50.579834
2019-06-20T08:55:54.494Z,50.701904
2019-06-20T08:57:04.493Z,51.202393
2019-06-20T08:58:13.421Z,51.202393
2019-06-20T08:59:24.584Z,50.90332
2019-06-20T09:00:32.465Z,51.818848
2019-06-20T09:01:41.967Z,52.313232
2019-06-20T09:02:51.476Z,52.020264
2019-06-20T09:05:11.483Z,52.514648
2019-06-20T09:06:21.010Z,51.916504
2019-06-20T09:07:30.510Z,52.813721
2019-06-20T09:08:40.022Z,52.490234
2019-06-20T09:09:49.553Z,52.093506
2019-06-20T09:10:59.526Z,51.867676
2019-06-20T09:12:08.799Z,51.275635
2019-06-20T09:13:18.423Z,50.280762
2019-06-20T09:14:27.911Z,50.183105
2019-06-20T09:15:37.425Z,50.78125
2019-06-20T09:16:46.990Z,51.049805
2019-06-20T09:17:58.451Z,49.987793
2019-06-20T09:19:08.082Z,50.952148
2019-06-20T09:20:17.617Z,50.384521
2019-06-20T09:21:27.166Z,50.976562
2019-06-20T09:22:36.722Z,50.384521
2019-06-20T09:23:46.242Z,51.867676
2019-06-20T09:24:56.836Z,51.098633
2019-06-20T09:26:06.327Z,49.713135
2019-06-20T09:27:15.865Z,50.109863
2019-06-20T09:28:25.402Z,50.231934
2019-06-20T09:29:41.539Z,50.628662
2019-06-20T09:30:45.452Z,50.427246
2019-06-20T09:31:55.986Z,51.147461
2019-06-20T09:33:05.547Z,51.348877
2019-06-20T09:34:15.141Z,50.927734
2019-06-20T09:35:24.677Z,50.878906
2019-06-20T09:36:34.381Z,49.761963
2019-06-20T09:37:43.874Z,49.517822
2019-06-20T09:38:53.934Z,48.480225
2019-06-20T09:40:04.041Z,46.356201
2019-06-20T09:41:13.658Z,45.739746
2019-06-20T09:42:23.176Z,46.09375
2019-06-20T09:43:32.693Z,45.794678
2019-06-20T09:44:42.212Z,46.044922
2019-06-20T09:45:53.069Z,45.629883
2019-06-20T09:47:02.418Z,43.878174
2019-06-20T09:48:10.881Z,44.567871
2019-06-20T09:49:20.413Z,44.348145
2019-06-20T09:50:29.978Z,44.177246
2019-06-20T09:51:39.547Z,45.404053
2019-06-20T09:52:51.132Z,45.64209
2019-06-20T09:53:59.572Z,46.356201
2019-06-20T09:55:09.086Z,46.655273
2019-06-20T09:56:19.227Z,46.893311
2019-06-20T09:57:28.896Z,47.589111
2019-06-20T09:58:38.429Z,48.754883
2019-06-20T09:59:56.904Z,47.814941
2019-06-20T10:00:58.475Z,47.2229
2019-06-20T10:02:08.070Z,46.313477
2019-06-20T10:03:17.619Z,45.97168
2019-06-20T10:04:27.116Z,45.159912
2019-06-20T10:05:36.624Z,45.629883
2019-06-20T10:06:47.354Z,44.030762
2019-06-20T10:07:56.623Z,43.225098
2019-06-20T10:09:05.167Z,42.340088
2019-06-20T10:10:14.707Z,43.225098
2019-06-20T10:11:24.224Z,43.029785
2019-06-20T10:12:33.773Z,42.376709
2019-06-20T10:13:43.295Z,43.859863
2019-06-20T10:14:53.560Z,42.871094
2019-06-20T10:16:02.451Z,42.279053
2019-06-20T10:17:11.922Z,42.279053
2019-06-20T10:18:21.448Z,42.456055
2019-06-20T10:19:30.952Z,42.06543
2019-06-20T10:20:40.490Z,41.571045
2019-06-20T10:21:51.920Z,41.766357
2019-06-20T10:23:02.029Z,41.473389
2019-06-20T10:24:11.584Z,42.340088
2019-06-20T10:25:21.161Z,42.5354
2019-06-20T10:26:30.703Z,41.137695
2019-06-20T10:27:41.283Z,41.137695
2019-06-20T10:28:53.006Z,42.199707
2019-06-20T10:30:13.708Z,41.314697
2019-06-20T10:31:12.743Z,40.228271
2019-06-20T10:32:22.279Z,40.643311
2019-06-20T10:33:31.797Z,42.041016
2019-06-20T10:34:41.348Z,41.351318
2019-06-20T10:35:52.602Z,42.041016
2019-06-20T10:37:02.424Z,41.766357
2019-06-20T10:38:11.975Z,41.650391
2019-06-20T10:39:21.521Z,42.06543
2019-06-20T10:40:31.027Z,41.271973
2019-06-20T10:41:40.760Z,41.589355
2019-06-20T10:42:52.742Z,40.997314
2019-06-20T10:44:01.751Z,40.997314
2019-06-20T10:45:11.262Z,41.51001
2019-06-20T10:46:20.951Z,41.687012
2019-06-20T10:47:33.733Z,42.163086
2019-06-20T10:48:42.484Z,42.041016
2019-06-20T10:49:51.882Z,41.333008
2019-06-20T10:51:00.184Z,40.17334
2019-06-20T10:52:10.717Z,40.740967
2019-06-20T10:53:20.263Z,40.332031
2019-06-20T10:54:29.788Z,38.952637
2019-06-20T10:55:40.485Z,39.544678
2019-06-20T10:56:51.023Z,40.252686
2019-06-20T10:57:59.758Z,41.351318
2019-06-20T10:59:09.297Z,42.828369
2019-06-20T11:00:30.009Z,44.42749
2019-06-20T11:01:29.485Z,45.019531
2019-06-20T11:02:39.008Z,45.214844
2019-06-20T11:03:49.986Z,45.037842
2019-06-20T11:04:59.039Z,45.751953
2019-06-20T11:06:08.611Z,46.166992
2019-06-20T11:07:18.182Z,46.466064
2019-06-20T11:08:27.692Z,46.881104
2019-06-20T11:09:39.572Z,48.016357
2019-06-20T11:10:47.191Z,48.925781
2019-06-20T11:11:56.359Z,49.493408
2019-06-20T11:13:05.896Z,49.987793
2019-06-20T11:14:15.412Z,50.878906
2019-06-20T11:15:24.932Z,51.568604
2019-06-20T11:16:34.503Z,51.843262
2019-06-20T11:17:46.262Z,51.348877
2019-06-20T11:18:54.681Z,51.000977
2019-06-20T11:20:04.214Z,50.683594
2019-06-20T11:21:13.733Z,49.963379
2019-06-20T11:22:23.274Z,48.876953
2019-06-20T11:23:32.878Z,49.450684
2019-06-20T11:24:43.459Z,48.4375
2019-06-20T11:25:53.023Z,48.31543
2019-06-20T11:27:02.632Z,48.510742
2019-06-20T11:28:12.154Z,47.106934
2019-06-20T11:29:21.664Z,47.503662
2019-06-20T11:30:44.760Z,47.479248
2019-06-20T11:31:45.025Z,46.77124
2019-06-20T11:32:52.340Z,45.861816
2019-06-20T11:34:01.874Z,45.074463
2019-06-20T11:35:11.442Z,44.952393
2019-06-20T11:36:21.011Z,44.067383
2019-06-20T11:37:30.555Z,44.732666
2019-06-20T11:38:42.445Z,44.439697
2019-06-20T11:39:51.671Z,45.172119
2019-06-20T11:41:01.382Z,45.269775
2019-06-20T11:42:10.927Z,44.854736
2019-06-20T11:43:20.488Z,44.439697
2019-06-20T11:44:30.007Z,44.537354
2019-06-20T11:45:40.884Z,44.519043
2019-06-20T11:46:50.064Z,43.31665
2019-06-20T11:47:59.589Z,43.078613
2019-06-20T11:49:09.151Z,42.584229
2019-06-20T11:50:18.695Z,42.565918
2019-06-20T11:51:28.236Z,42.053223
2019-06-20T11:52:42.352Z,41.253662
2019-06-20T11:53:49.241Z,40.936279
2019-06-20T11:54:58.749Z,40.429688
2019-06-20T11:56:08.376Z,40.014648
2019-06-20T11:57:17.957Z,39.624023
2019-06-20T11:58:27.530Z,38.824463
2019-06-20T11:59:37.052Z,39.215088
2019-06-20T12:01:02.438Z,39.099121
2019-06-20T12:01:57.082Z,38.690186
2019-06-20T12:03:06.629Z,38.085938
2019-06-20T12:04:16.161Z,39.001465
2019-06-20T12:05:25.734Z,39.508057
2019-06-20T12:06:35.255Z,39.4104
2019-06-20T12:07:47.616Z,39.117432
2019-06-20T12:08:55.374Z,38.513184
2019-06-20T12:10:04.908Z,38.494873
2019-06-20T12:11:14.421Z,38.592529
2019-06-20T12:12:24.141Z,37.792969
2019-06-20T12:13:33.654Z,37.768555
2019-06-20T12:14:44.306Z,36.779785
2019-06-20T12:15:53.730Z,35.980225
2019-06-20T12:17:03.287Z,36.05957
2019-06-20T12:18:12.829Z,36.077881
2019-06-20T12:19:22.416Z,36.291504
2019-06-20T12:20:31.994Z,36.682129
2019-06-20T12:21:42.445Z,36.663818
2019-06-20T12:22:52.012Z,36.157227
2019-06-20T12:24:01.535Z,35.650635
2019-06-20T12:25:12.049Z,34.838867
2019-06-20T12:26:21.559Z,33.850098
2019-06-20T12:27:31.120Z,34.124756
2019-06-20T12:28:40.775Z,32.873535
2019-06-20T12:29:50.135Z,33.380127
2019-06-20T12:30:59.667Z,33.673096
2019-06-20T12:32:10.208Z,33.007812
2019-06-20T12:33:19.746Z,32.910156
2019-06-20T12:34:29.269Z,34.307861
2019-06-20T12:35:39.479Z,35.491943
2019-06-20T12:36:49.259Z,36.621094
2019-06-20T12:37:58.785Z,36.94458
2019-06-20T12:39:08.295Z,37.689209
2019-06-20T12:40:17.820Z,37.823486
2019-06-20T12:41:27.349Z,39.013672
2019-06-20T12:42:39.073Z,39.544678
2019-06-20T12:43:48.281Z,39.953613
2019-06-20T12:44:56.986Z,40.075684
2019-06-20T12:46:06.625Z,39.093018
2019-06-20T12:47:16.096Z,40.093994
2019-06-20T12:48:25.618Z,40.899658
2019-06-20T12:49:35.172Z,41.015625
2019-06-20T12:50:45.661Z,41.625977
2019-06-20T12:51:55.265Z,41.748047
2019-06-20T12:53:04.812Z,41.986084
2019-06-20T12:54:14.359Z,42.993164
2019-06-20T12:55:23.867Z,43.603516
2019-06-20T12:56:33.413Z,43.701172
2019-06-20T12:57:44.236Z,44.0979
2019-06-20T12:58:53.481Z,42.956543
2019-06-20T13:00:03.128Z,43.664551
2019-06-20T13:01:12.540Z,44.897461
2019-06-20T13:02:22.084Z,44.897461
2019-06-20T13:03:31.624Z,44.720459
2019-06-20T13:04:41.648Z,44.244385
2019-06-20T13:05:50.689Z,45.532227
2019-06-20T13:07:00.291Z,45.849609
2019-06-20T13:08:12.805Z,46.051025
2019-06-20T13:09:19.377Z,45.874023
2019-06-20T13:10:28.900Z,46.270752
2019-06-20T13:11:39.347Z,45.898438
2019-06-20T13:12:48.815Z,47.229004
2019-06-20T13:13:57.510Z,47.43042
2019-06-20T13:15:07.027Z,47.851562
2019-06-20T13:16:16.556Z,48.248291
2019-06-20T13:17:26.065Z,48.620605